createdAt,value
2023-03-24T00:02:01.406Z,1.23
2023-03-24T00:04:29.682Z,1.43
2023-03-24T00:06:57.142Z,1.20
2023-03-24T00:09:24.515Z,1.67
2023-03-24T00:11:51.842Z,1.40
2023-03-24T00:14:20.501Z,1.53
2023-03-24T00:16:50.066Z,1.53
2023-03-24T00:19:18.202Z,1.23
2023-03-24T00:21:45.542Z,1.63
2023-03-24T00:24:13.475Z,1.77
2023-03-24T00:26:42.218Z,1.47
2023-03-24T00:29:10.932Z,2.00
2023-03-24T00:31:40.481Z,1.50
2023-03-24T00:34:10.309Z,1.50
2023-03-24T00:36:38.059Z,1.60
2023-03-24T00:39:06.445Z,1.33
2023-03-24T00:41:33.986Z,1.70
2023-03-24T00:44:03.713Z,1.63
2023-03-24T00:46:32.176Z,1.37
2023-03-24T00:49:05.721Z,1.40
2023-03-24T00:51:34.803Z,1.50
2023-03-24T00:54:02.563Z,1.63
2023-03-24T00:56:32.734Z,1.60
2023-03-24T00:59:02.412Z,1.30
2023-03-24T01:01:33.045Z,1.33
2023-03-24T01:04:02.349Z,1.43
2023-03-24T01:06:30.399Z,1.30
2023-03-24T01:08:57.747Z,1.17
2023-03-24T01:11:25.934Z,1.37
2023-03-24T01:13:54.266Z,1.30
2023-03-24T01:16:25.520Z,1.50
2023-03-24T01:18:53.141Z,1.50
2023-03-24T01:21:21.841Z,1.67
2023-03-24T01:23:49.307Z,1.37
2023-03-24T01:26:17.877Z,1.50
2023-03-24T01:28:45.614Z,1.20
2023-03-24T01:31:13.042Z,1.50
2023-03-24T01:33:40.578Z,1.30
2023-03-24T01:36:08.527Z,1.20
2023-03-24T01:38:37.373Z,1.30
2023-03-24T01:41:05.620Z,1.63
2023-03-24T01:43:34.039Z,1.30
2023-03-24T01:46:04.001Z,1.20
2023-03-24T01:48:33.944Z,1.30
2023-03-24T01:51:02.703Z,1.50
2023-03-24T01:53:31.044Z,1.23
2023-03-24T01:56:00.415Z,1.60
2023-03-24T01:58:33.085Z,1.50
2023-03-24T02:01:21.979Z,1.50
2023-03-24T02:03:49.701Z,1.73
2023-03-24T02:06:18.972Z,1.60
2023-03-24T02:08:49.804Z,1.60
2023-03-24T02:11:18.491Z,1.73
2023-03-24T02:13:53.272Z,1.50
2023-03-24T02:16:27.406Z,1.77
2023-03-24T02:19:01.132Z,1.80
2023-03-24T02:21:39.249Z,1.70
2023-03-24T02:24:27.922Z,1.90
2023-03-24T02:26:59.375Z,1.70
2023-03-24T02:29:48.909Z,1.60
2023-03-24T02:32:34.014Z,1.70
2023-03-24T02:35:13.701Z,2.10
2023-03-24T02:37:58.240Z,1.60
2023-03-24T02:40:29.702Z,1.80
2023-03-24T02:43:14.980Z,1.90
2023-03-24T02:45:47.365Z,1.60
2023-03-24T02:48:20.927Z,1.53
2023-03-24T02:50:52.051Z,1.50
2023-03-24T02:53:23.335Z,1.90
2023-03-24T02:56:14.958Z,1.50
2023-03-24T02:58:47.500Z,1.50
2023-03-24T03:01:18.135Z,1.47
2023-03-24T03:04:16.705Z,1.50
2023-03-24T03:06:46.705Z,1.37
2023-03-24T03:09:16.263Z,1.43
2023-03-24T03:11:47.778Z,1.80
2023-03-24T03:14:18.571Z,1.30
2023-03-24T03:16:47.791Z,1.80
2023-03-24T03:19:17.867Z,1.63
2023-03-24T03:21:48.304Z,1.80
2023-03-24T03:24:19.977Z,1.73
2023-03-24T03:26:49.843Z,1.83
2023-03-24T03:29:21.925Z,1.50
2023-03-24T03:31:53.028Z,1.67
2023-03-24T03:34:23.965Z,1.70
2023-03-24T03:36:53.604Z,1.50
2023-03-24T03:39:24.093Z,1.63
2023-03-24T03:41:53.174Z,1.63
2023-03-24T03:44:20.795Z,1.67
2023-03-24T03:46:48.451Z,1.50
2023-03-24T03:49:22.751Z,1.70
2023-03-24T03:51:52.574Z,1.63
2023-03-24T03:54:20.774Z,1.40
2023-03-24T03:56:49.578Z,1.80
2023-03-24T03:59:26.262Z,1.33
2023-03-24T04:01:54.124Z,1.67
2023-03-24T04:04:50.592Z,1.50
2023-03-24T04:07:33.672Z,1.50
2023-03-24T04:10:19.541Z,1.23
2023-03-24T04:12:57.272Z,1.40
2023-03-24T04:15:54.826Z,1.50
2023-03-24T04:18:52.283Z,1.57
2023-03-24T04:21:28.512Z,1.70
2023-03-24T04:24:05.158Z,1.60
2023-03-24T04:26:36.090Z,1.50
2023-03-24T04:29:09.885Z,1.63
2023-03-24T04:31:41.946Z,1.53
2023-03-24T04:34:12.878Z,1.60
2023-03-24T04:36:45.327Z,1.60
2023-03-24T04:39:38.856Z,1.47
2023-03-24T04:42:15.712Z,1.73
2023-03-24T04:44:44.854Z,1.63
2023-03-24T04:47:33.847Z,1.80
2023-03-24T04:50:30.331Z,1.80
2023-03-24T04:53:00.475Z,1.90
2023-03-24T04:55:41.616Z,1.97
2023-03-24T04:58:09.012Z,3.20
2023-03-24T05:00:37.261Z,2.97
2023-03-24T05:03:06.291Z,2.67
2023-03-24T05:05:33.821Z,1.70
2023-03-24T05:08:01.965Z,1.50
2023-03-24T05:10:29.547Z,1.20
2023-03-24T05:12:58.196Z,1.53
2023-03-24T05:15:44.250Z,1.40
2023-03-24T05:18:25.536Z,1.40
2023-03-24T05:20:53.687Z,1.20
2023-03-24T05:23:22.530Z,2.23
2023-03-24T05:25:51.237Z,2.23
2023-03-24T05:28:20.805Z,1.90
2023-03-24T05:30:48.722Z,2.23
2023-03-24T05:33:34.751Z,2.43
2023-03-24T05:36:03.171Z,4.90
2023-03-24T05:38:31.294Z,2.50
2023-03-24T05:40:59.349Z,4.93
2023-03-24T05:43:32.930Z,2.83
2023-03-24T05:46:12.731Z,2.97
2023-03-24T05:48:42.546Z,3.60
2023-03-24T05:51:15.831Z,4.17
2023-03-24T05:53:43.432Z,3.20
2023-03-24T05:56:19.414Z,2.93
2023-03-24T05:59:07.545Z,3.50
2023-03-24T06:01:56.684Z,1.97
2023-03-24T06:04:32.808Z,1.57
2023-03-24T06:07:09.164Z,2.10
2023-03-24T06:09:42.263Z,2.03
2023-03-24T06:12:11.761Z,1.90
2023-03-24T06:14:46.067Z,2.87
2023-03-24T06:17:15.266Z,2.27
2023-03-24T06:19:49.772Z,2.50
2023-03-24T06:22:25.839Z,1.80
2023-03-24T06:24:53.809Z,1.70
2023-03-24T06:27:25.520Z,1.73
2023-03-24T06:29:54.286Z,2.10
2023-03-24T06:32:22.199Z,1.70
2023-03-24T06:34:51.113Z,1.50
2023-03-24T06:37:30.578Z,1.50
2023-03-24T06:40:00.255Z,1.23
2023-03-24T06:42:30.473Z,1.43
2023-03-24T06:44:58.630Z,1.30
2023-03-24T06:47:26.522Z,1.33
2023-03-24T06:49:55.489Z,1.40
2023-03-24T06:52:24.599Z,1.23
2023-03-24T06:54:52.570Z,1.03
2023-03-24T06:57:20.046Z,1.30
2023-03-24T07:00:08.058Z,1.40
2023-03-24T07:02:43.076Z,1.30
2023-03-24T07:05:12.373Z,1.20
2023-03-24T07:10:33.799Z,1.00
2023-03-24T07:13:03.117Z,1.30
2023-03-24T07:15:32.810Z,1.23
2023-03-24T07:18:00.858Z,1.60
2023-03-24T07:20:52.624Z,1.33
2023-03-24T07:23:22.796Z,1.40
2023-03-24T07:26:13.299Z,1.90
2023-03-24T07:28:49.737Z,1.60
2023-03-24T07:31:38.067Z,1.57
2023-03-24T07:34:09.162Z,1.80
2023-03-24T07:36:39.932Z,1.60
2023-03-24T07:39:13.179Z,1.30
2023-03-24T07:41:41.020Z,1.70
2023-03-24T07:44:15.800Z,1.30
2023-03-24T07:46:53.644Z,1.43
2023-03-24T07:49:21.969Z,1.40
2023-03-24T07:52:02.042Z,1.77
2023-03-24T07:54:34.454Z,1.47
2023-03-24T07:57:02.485Z,1.40
2023-03-24T07:59:30.666Z,1.40
2023-03-24T08:02:06.489Z,1.50
2023-03-24T08:04:47.843Z,1.40
2023-03-24T08:07:30.106Z,1.47
2023-03-24T08:09:57.462Z,1.40
2023-03-24T08:12:24.798Z,1.30
2023-03-24T08:14:54.379Z,1.60
2023-03-24T08:17:21.940Z,1.63
2023-03-24T08:19:59.485Z,2.17
2023-03-24T08:22:29.620Z,1.60
2023-03-24T08:24:56.946Z,1.40
2023-03-24T08:27:24.349Z,1.70
2023-03-24T08:29:52.281Z,1.70
2023-03-24T08:32:19.648Z,1.60
2023-03-24T08:34:47.039Z,1.40
2023-03-24T08:37:14.372Z,1.67
2023-03-24T08:39:43.045Z,1.77
2023-03-24T08:42:10.412Z,1.90
2023-03-24T08:44:37.782Z,1.60
2023-03-24T08:47:05.180Z,1.70
2023-03-24T08:49:32.528Z,1.50
2023-03-24T08:51:59.870Z,1.53
2023-03-24T08:54:27.766Z,1.60
2023-03-24T08:56:56.469Z,1.60
2023-03-24T08:59:23.894Z,1.67
2023-03-24T09:01:51.256Z,1.80
2023-03-24T09:04:18.986Z,2.70
2023-03-24T09:06:46.450Z,2.83
2023-03-24T09:09:13.820Z,2.90
2023-03-24T09:11:41.523Z,3.40
2023-03-24T09:14:10.275Z,3.37
2023-03-24T09:16:37.928Z,2.07
2023-03-24T09:19:05.713Z,3.70
2023-03-24T09:21:33.188Z,3.20
2023-03-24T09:24:01.059Z,3.60
2023-03-24T09:26:28.401Z,2.27
2023-03-24T09:28:55.804Z,2.10
2023-03-24T09:31:24.496Z,2.00
2023-03-24T09:33:52.587Z,2.30
2023-03-24T09:36:19.963Z,2.10
2023-03-24T09:38:47.423Z,2.07
2023-03-24T09:41:16.959Z,1.83
2023-03-24T09:43:45.815Z,1.30
2023-03-24T09:46:15.313Z,1.60
2023-03-24T09:48:46.360Z,2.47
2023-03-24T09:51:15.895Z,2.30
2023-03-24T09:53:44.993Z,1.73
2023-03-24T09:56:13.643Z,2.00
2023-03-24T09:58:41.787Z,1.47
2023-03-24T10:01:13.307Z,0.53
2023-03-24T10:03:41.047Z,0.53
2023-03-24T10:06:12.955Z,0.70
2023-03-24T10:08:42.467Z,0.60
2023-03-24T10:11:14.255Z,0.53
2023-03-24T10:13:48.643Z,0.60
2023-03-24T10:16:19.583Z,0.57
2023-03-24T10:18:50.113Z,0.50
2023-03-24T10:21:21.186Z,0.40
2023-03-24T10:23:51.722Z,0.40
2023-03-24T10:26:27.012Z,0.47
2023-03-24T10:29:01.220Z,0.50
2023-03-24T10:31:29.837Z,0.60
2023-03-24T10:33:57.367Z,0.30
2023-03-24T10:36:27.038Z,0.60
2023-03-24T10:38:54.828Z,0.60
2023-03-24T10:41:23.366Z,0.50
2023-03-24T10:43:51.713Z,0.50
2023-03-24T10:46:20.843Z,0.50
2023-03-24T10:48:49.728Z,0.40
2023-03-24T10:51:18.453Z,0.43
2023-03-24T10:53:48.715Z,0.70
2023-03-24T10:56:19.986Z,0.50
2023-03-24T10:58:48.227Z,0.47
2023-03-24T11:01:23.687Z,0.30
2023-03-24T11:03:51.246Z,0.40
2023-03-24T11:06:19.779Z,0.40
2023-03-24T11:08:49.032Z,0.37
2023-03-24T11:11:29.092Z,0.30
2023-03-24T11:13:57.565Z,0.37
2023-03-24T11:16:28.494Z,0.37
2023-03-24T11:18:57.530Z,0.30
2023-03-24T11:21:25.375Z,0.67
2023-03-24T11:23:54.110Z,0.43
2023-03-24T11:26:22.999Z,0.50
2023-03-24T11:28:53.167Z,0.43
2023-03-24T11:31:25.286Z,0.50
2023-03-24T11:33:57.807Z,0.50
2023-03-24T11:36:40.064Z,0.20
2023-03-24T11:39:12.622Z,0.50
2023-03-24T11:41:41.761Z,0.77
2023-03-24T11:44:16.747Z,1.00
2023-03-24T11:46:45.361Z,0.20
2023-03-24T11:49:14.382Z,0.40
2023-03-24T11:51:43.595Z,0.50
2023-03-24T11:54:14.383Z,0.40
2023-03-24T11:56:43.241Z,0.40
2023-03-24T11:59:14.899Z,0.60
2023-03-24T12:01:47.786Z,0.50
2023-03-24T12:04:25.072Z,0.63
2023-03-24T12:06:58.233Z,0.70
2023-03-24T12:09:32.029Z,0.40
2023-03-24T12:12:08.086Z,0.40
2023-03-24T12:14:40.040Z,0.60
2023-03-24T12:17:09.919Z,0.50
2023-03-24T12:19:52.579Z,0.50
2023-03-24T12:22:23.928Z,0.33
2023-03-24T12:25:01.682Z,0.40
2023-03-24T12:27:34.699Z,0.53
2023-03-24T12:30:05.423Z,0.30
2023-03-24T12:32:41.475Z,0.57
2023-03-24T12:35:17.440Z,0.37
2023-03-24T12:37:49.531Z,0.40
2023-03-24T12:40:28.066Z,0.50
2023-03-24T12:42:58.628Z,0.40
2023-03-24T12:45:31.002Z,0.50
2023-03-24T12:48:07.125Z,0.40
2023-03-24T12:50:39.792Z,0.40
2023-03-24T12:53:14.083Z,0.43
2023-03-24T12:55:44.300Z,0.50
2023-03-24T12:58:13.956Z,0.50
2023-03-24T13:00:42.795Z,0.60
2023-03-24T13:03:12.808Z,0.50
2023-03-24T13:05:42.952Z,0.60
2023-03-24T13:08:13.697Z,0.60
2023-03-24T13:10:42.119Z,0.50
2023-03-24T13:13:14.305Z,0.67
2023-03-24T13:15:44.365Z,0.40
2023-03-24T13:18:18.935Z,0.60
2023-03-24T13:20:47.577Z,0.60
2023-03-24T13:23:24.923Z,0.80
2023-03-24T13:25:54.952Z,0.90
2023-03-24T13:28:25.782Z,0.70
2023-03-24T13:30:53.385Z,1.10
2023-03-24T13:33:22.857Z,1.10
2023-03-24T13:35:58.821Z,1.77
2023-03-24T13:38:30.584Z,1.40
2023-03-24T13:40:58.047Z,1.00
2023-03-24T13:43:29.820Z,1.90
2023-03-24T13:46:00.182Z,1.60
2023-03-24T13:48:32.304Z,1.50
2023-03-24T13:51:01.198Z,1.77
2023-03-24T13:53:33.444Z,1.70
2023-03-24T13:56:01.706Z,2.10
2023-03-24T13:58:45.360Z,0.50
2023-03-24T14:01:17.184Z,0.50
2023-03-24T14:03:45.335Z,0.40
2023-03-24T14:06:16.232Z,0.40
2023-03-24T14:08:54.949Z,0.20
2023-03-24T14:11:41.438Z,0.47
2023-03-24T14:14:17.909Z,0.43
2023-03-24T14:16:49.930Z,0.20
2023-03-24T14:19:21.934Z,0.50
2023-03-24T14:21:53.658Z,0.20
2023-03-24T14:24:24.582Z,0.30
2023-03-24T14:26:51.953Z,0.10
2023-03-24T14:29:40.265Z,0.40
2023-03-24T14:32:19.299Z,0.40
2023-03-24T14:34:55.453Z,0.57
2023-03-24T14:37:23.054Z,0.30
2023-03-24T14:39:50.801Z,0.33
2023-03-24T14:42:27.969Z,0.50
2023-03-24T14:44:57.886Z,0.60
2023-03-24T14:47:29.179Z,0.50
2023-03-24T14:49:58.024Z,0.30
2023-03-24T14:52:26.870Z,0.53
2023-03-24T14:54:55.315Z,0.40
2023-03-24T14:57:24.689Z,0.50
2023-03-24T14:59:56.689Z,0.50
2023-03-24T15:02:28.746Z,0.60
2023-03-24T15:05:14.852Z,0.50
2023-03-24T15:07:42.587Z,0.80
2023-03-24T15:10:14.494Z,0.70
2023-03-24T15:12:44.006Z,0.70
2023-03-24T15:15:15.361Z,0.80
2023-03-24T15:17:45.417Z,0.60
2023-03-24T15:20:21.647Z,0.67
2023-03-24T15:22:49.010Z,0.80
2023-03-24T15:25:17.176Z,0.57
2023-03-24T15:27:49.651Z,0.77
2023-03-24T15:30:17.169Z,0.70
2023-03-24T15:32:47.635Z,1.73
2023-03-24T15:35:16.512Z,8.90
2023-03-24T15:37:48.228Z,5.53
2023-03-24T15:40:31.968Z,1.40
2023-03-24T15:43:00.611Z,2.00
2023-03-24T15:45:29.531Z,2.27
2023-03-24T15:47:58.886Z,1.23
2023-03-24T15:50:30.861Z,1.10
2023-03-24T15:53:02.632Z,1.10
2023-03-24T15:55:32.605Z,1.33
2023-03-24T15:58:01.473Z,1.13
2023-03-24T16:00:29.600Z,1.33
2023-03-24T16:03:02.172Z,1.80
2023-03-24T16:05:30.669Z,1.50
2023-03-24T16:07:59.338Z,1.43
2023-03-24T16:10:32.097Z,1.80
2023-03-24T16:13:05.273Z,1.37
2023-03-24T16:15:32.620Z,1.03
2023-03-24T16:18:05.274Z,0.90
2023-03-24T16:20:33.732Z,0.60
2023-03-24T16:23:01.052Z,0.80
2023-03-24T16:25:28.394Z,0.90
2023-03-24T16:27:55.789Z,0.60
2023-03-24T16:30:25.590Z,0.70
2023-03-24T16:32:53.029Z,0.57
2023-03-24T16:35:22.035Z,0.70
2023-03-24T16:37:49.410Z,0.60
2023-03-24T16:40:26.467Z,0.77
2023-03-24T16:42:53.821Z,0.60
2023-03-24T16:45:21.284Z,0.50
2023-03-24T16:47:48.656Z,0.60
2023-03-24T16:50:24.757Z,0.70
2023-03-24T16:52:52.098Z,0.60
2023-03-24T16:55:19.740Z,0.53
2023-03-24T16:57:47.132Z,0.60
2023-03-24T17:00:14.969Z,0.90
2023-03-24T17:05:18.952Z,0.67
2023-03-24T17:07:49.969Z,0.70
2023-03-24T17:10:17.536Z,0.63
2023-03-24T17:12:44.929Z,0.70
2023-03-24T17:15:16.979Z,0.60
2023-03-24T17:17:44.365Z,0.77
2023-03-24T17:20:13.464Z,0.73
2023-03-24T17:22:41.870Z,1.00
2023-03-24T17:25:11.633Z,0.57
2023-03-24T17:27:39.230Z,0.70
2023-03-24T17:30:07.395Z,0.60
2023-03-24T17:32:35.137Z,0.60
2023-03-24T17:35:03.503Z,0.60
2023-03-24T17:37:31.641Z,0.57
2023-03-24T17:39:59.021Z,0.60
2023-03-24T17:42:28.319Z,0.50
2023-03-24T17:44:55.645Z,0.70
2023-03-24T17:47:23.027Z,0.60
2023-03-24T17:49:50.658Z,0.50
2023-03-24T17:52:17.973Z,0.60
2023-03-24T17:54:45.912Z,0.60
2023-03-24T17:57:13.384Z,0.90
2023-03-24T17:59:42.143Z,0.60
2023-03-24T18:02:11.155Z,0.97
2023-03-24T18:04:38.612Z,0.70
2023-03-24T18:07:05.995Z,0.70
2023-03-24T18:09:33.597Z,0.83
2023-03-24T18:12:01.192Z,0.93
2023-03-24T18:14:28.611Z,1.07
2023-03-24T18:16:57.600Z,1.00
2023-03-24T18:19:25.005Z,1.00
2023-03-24T18:21:52.509Z,1.10
2023-03-24T18:24:20.392Z,0.90
2023-03-24T18:26:49.254Z,1.00
2023-03-24T18:29:17.935Z,1.17
2023-03-24T18:31:45.825Z,0.90
2023-03-24T18:34:14.540Z,1.00
2023-03-24T18:36:42.227Z,1.10
2023-03-24T18:39:10.704Z,0.90
2023-03-24T18:41:38.147Z,1.00
2023-03-24T18:44:07.164Z,0.80
2023-03-24T18:46:34.737Z,0.80
2023-03-24T18:49:02.196Z,0.90
2023-03-24T18:51:31.129Z,0.93
2023-03-24T18:53:58.546Z,1.20
2023-03-24T18:56:26.336Z,1.30
2023-03-24T18:58:53.847Z,1.20
2023-03-24T19:01:22.757Z,0.90
2023-03-24T19:03:51.914Z,1.00
2023-03-24T19:06:19.725Z,0.90
2023-03-24T19:08:51.027Z,1.10
2023-03-24T19:11:18.423Z,1.07
2023-03-24T19:13:47.161Z,0.90
2023-03-24T19:16:14.553Z,0.80
2023-03-24T19:18:41.904Z,0.80
2023-03-24T19:21:09.287Z,0.90
2023-03-24T19:23:36.940Z,1.23
2023-03-24T19:26:05.835Z,1.17
2023-03-24T19:28:35.572Z,1.40
2023-03-24T19:31:07.784Z,1.30
2023-03-24T19:33:35.720Z,1.83
2023-03-24T19:36:03.146Z,2.13
2023-03-24T19:38:30.574Z,2.83
2023-03-24T19:40:58.123Z,3.43
2023-03-24T19:43:26.864Z,3.47
2023-03-24T19:45:54.888Z,3.37
2023-03-24T19:48:22.800Z,4.33
2023-03-24T19:50:51.682Z,4.57
2023-03-24T19:53:19.479Z,6.47
2023-03-24T19:55:47.504Z,5.13
2023-03-24T19:58:15.753Z,6.00
2023-03-24T20:00:44.850Z,6.70
2023-03-24T20:03:12.261Z,8.20
2023-03-24T20:05:39.721Z,6.87
2023-03-24T20:08:07.075Z,5.87
2023-03-24T20:10:35.634Z,5.87
2023-03-24T20:13:03.054Z,6.00
2023-03-24T20:15:30.462Z,7.33
2023-03-24T20:17:59.213Z,7.77
2023-03-24T20:20:26.604Z,7.47
2023-03-24T20:22:54.006Z,5.67
2023-03-24T20:25:22.249Z,4.70
2023-03-24T20:27:49.686Z,2.50
2023-03-24T20:30:18.696Z,5.30
2023-03-24T20:32:46.177Z,8.07
2023-03-24T20:35:15.034Z,7.20
2023-03-24T20:37:42.419Z,6.27
2023-03-24T20:40:10.392Z,11.13
2023-03-24T20:42:37.844Z,5.80
2023-03-24T20:45:05.983Z,3.97
2023-03-24T20:47:33.377Z,1.80
2023-03-24T20:50:03.160Z,1.10
2023-03-24T20:52:32.757Z,1.10
2023-03-24T20:55:01.495Z,1.00
2023-03-24T20:57:31.047Z,1.03
2023-03-24T20:59:58.403Z,1.33
2023-03-24T21:02:26.093Z,1.00
2023-03-24T21:04:53.683Z,1.20
2023-03-24T21:07:21.133Z,1.00
2023-03-24T21:09:49.833Z,1.07
2023-03-24T21:12:17.253Z,1.10
2023-03-24T21:14:46.715Z,1.30
2023-03-24T21:17:14.534Z,1.17
2023-03-24T21:19:46.607Z,1.17
2023-03-24T21:22:15.147Z,1.40
2023-03-24T21:24:42.970Z,0.90
2023-03-24T21:27:11.650Z,1.00
2023-03-24T21:29:39.007Z,1.00
2023-03-24T21:32:06.448Z,0.83
2023-03-24T21:34:33.814Z,0.90
2023-03-24T21:37:01.685Z,1.03
2023-03-24T21:39:29.330Z,0.63
2023-03-24T21:41:56.941Z,0.90
2023-03-24T21:44:25.622Z,0.93
2023-03-24T21:46:52.945Z,0.90
2023-03-24T21:49:22.654Z,0.90
2023-03-24T21:51:54.653Z,1.10
2023-03-24T21:54:22.797Z,1.10
2023-03-24T21:56:50.205Z,1.00
2023-03-24T21:59:17.737Z,0.90
2023-03-24T22:01:46.500Z,1.00
2023-03-24T22:04:15.698Z,0.90
2023-03-24T22:06:43.102Z,0.80
2023-03-24T22:09:10.753Z,1.10
2023-03-24T22:11:42.508Z,1.10
2023-03-24T22:14:10.053Z,1.20
2023-03-24T22:16:37.415Z,1.00
2023-03-24T22:19:06.776Z,1.20
2023-03-24T22:21:34.115Z,0.90
2023-03-24T22:24:01.733Z,1.10
2023-03-24T22:26:29.072Z,1.40
2023-03-24T22:28:57.100Z,1.10
2023-03-24T22:31:24.626Z,1.00
2023-03-24T22:33:52.417Z,1.03
2023-03-24T22:36:21.354Z,1.37
2023-03-24T22:38:48.721Z,1.07
2023-03-24T22:41:16.229Z,1.20
2023-03-24T22:43:43.675Z,1.10
2023-03-24T22:46:11.423Z,1.00
2023-03-24T22:48:39.136Z,1.00
2023-03-24T22:51:06.798Z,1.37
2023-03-24T22:53:35.952Z,1.00
2023-03-24T22:56:03.577Z,1.00
2023-03-24T22:58:30.911Z,1.40
2023-03-24T23:00:58.319Z,1.20
2023-03-24T23:03:26.024Z,1.00
2023-03-24T23:05:53.492Z,1.20
2023-03-24T23:08:20.872Z,1.10
2023-03-24T23:10:49.795Z,1.17
2023-03-24T23:13:17.666Z,1.30
2023-03-24T23:15:45.224Z,1.30
2023-03-24T23:18:12.768Z,1.00
2023-03-24T23:20:40.533Z,1.20
2023-03-24T23:23:08.328Z,1.10
2023-03-24T23:25:40.186Z,1.20
2023-03-24T23:28:08.927Z,1.30
2023-03-24T23:30:36.845Z,1.10
2023-03-24T23:33:04.376Z,1.20
2023-03-24T23:35:33.117Z,1.10
2023-03-24T23:38:02.237Z,1.53
2023-03-24T23:40:29.614Z,1.07
2023-03-24T23:42:57.104Z,1.20
2023-03-24T23:45:25.770Z,1.30
2023-03-24T23:47:53.228Z,1.40
2023-03-24T23:50:20.826Z,1.37
2023-03-24T23:52:48.430Z,1.63
2023-03-24T23:55:18.158Z,1.37
2023-03-24T23:57:46.805Z,1.67
